Home > Products > Valid Products > TAF

000
FTUS42 KILM 110520
TAFILM
TAF
KILM 110520Z 1106/1206 26011KT P6SM SKC
     FM111100 29008KT P6SM SKC
     FM112300 26002KT P6SM SKC=



000
FTUS42 KILM 110520
TAFCRE
TAF
KCRE 110520Z 1106/1206 25005KT P6SM SKC
     FM111700 24008KT P6SM SKC
     FM112300 26002KT P6SM SKC=



000
FTUS42 KILM 110520
TAFFLO
TAF
KFLO 110520Z 1106/1206 26005KT P6SM SKC
     FM120000 00000KT P6SM SKC=



000
FTUS42 KILM 110520
TAFMYR
TAF
KMYR 110520Z 1106/1206 30006KT P6SM SKC
     FM111700 26010KT P6SM SKC
     FM112300 26002KT P6SM SKC
      AMD LTD TO CLD VIS AND WIND TIL 111100=



000
FTUS42 KILM 110520
TAFLBT
TAF
KLBT 110520Z 1106/1206 29006KT P6SM SKC
     FM120000 00000KT P6SM SKC=



000
FTUS42 KILM 110520
TAFLBT
TAF
KLBT 110520Z 1106/1206 29006KT P6SM SKC
     FM120000 00000KT P6SM SKC=



000
FTUS42 KILM 110520
TAFFLO
TAF
KFLO 110520Z 1106/1206 26005KT P6SM SKC
     FM120000 00000KT P6SM SKC=



000
FTUS42 KILM 110520
TAFCRE
TAF
KCRE 110520Z 1106/1206 25005KT P6SM SKC
     FM111700 24008KT P6SM SKC
     FM112300 26002KT P6SM SKC=



000
FTUS42 KILM 110520
TAFMYR
TAF
KMYR 110520Z 1106/1206 30006KT P6SM SKC
     FM111700 26010KT P6SM SKC
     FM112300 26002KT P6SM SKC
      AMD LTD TO CLD VIS AND WIND TIL 111100=



000
FTUS42 KILM 110520
TAFILM
TAF
KILM 110520Z 1106/1206 26011KT P6SM SKC
     FM111100 29008KT P6SM SKC
     FM112300 26002KT P6SM SKC=



000
FTUS42 KILM 102320
TAFMYR
TAF
KMYR 102320Z 1100/1124 29010G18KT P6SM BKN040
     FM110100 25010KT P6SM SKC
     FM112300 26002KT P6SM SKC
      AMD LTD TO CLD VIS AND WIND TIL 111100=



000
FTUS42 KILM 102320
TAFCRE
TAF
KCRE 102320Z 1100/1124 29011G18KT P6SM SKC
     FM110100 28009KT P6SM SKC
     FM112300 26002KT P6SM SKC=



000
FTUS42 KILM 102320
TAFCRE
TAF
KCRE 102320Z 1100/1124 29011G18KT P6SM SKC
     FM110100 28009KT P6SM SKC
     FM112300 26002KT P6SM SKC=



000
FTUS42 KILM 102320
TAFILM
TAF
KILM 102320Z 1100/1124 28013G21KT P6SM SCT050
     FM110100 27008KT P6SM SKC
     FM112300 26002KT P6SM SKC=



000
FTUS42 KILM 102320
TAFMYR
TAF
KMYR 102320Z 1100/1124 29010G18KT P6SM BKN040
     FM110100 25010KT P6SM SKC
     FM112300 26002KT P6SM SKC
      AMD LTD TO CLD VIS AND WIND TIL 111100=



000
FTUS42 KILM 102320
TAFFLO
TAF
KFLO 102320Z 1100/1124 28010G18KT P6SM BKN040
     FM110100 28008KT P6SM SCT250=



000
FTUS42 KILM 102320
TAFLBT
TAF
KLBT 102320Z 1100/1124 29011G18KT P6SM BKN040
     FM110100 28008KT P6SM SKC=



000
FTUS42 KILM 102320
TAFLBT
TAF
KLBT 102320Z 1100/1124 29011G18KT P6SM BKN040
     FM110100 28008KT P6SM SKC=



000
FTUS42 KILM 102320
TAFFLO
TAF
KFLO 102320Z 1100/1124 28010G18KT P6SM BKN040
     FM110100 28008KT P6SM SCT250=



000
FTUS42 KILM 102320
TAFILM
TAF
KILM 102320Z 1100/1124 28013G21KT P6SM SCT050
     FM110100 27008KT P6SM SKC
     FM112300 26002KT P6SM SKC=



000
FTUS42 KILM 101720
TAFFLO
TAF
KFLO 101720Z 1018/1118 28010G18KT P6SM BKN040
     FM110100 28008KT P6SM SKC=



000
FTUS42 KILM 101720
TAFMYR
TAF
KMYR 101720Z 1018/1118 29010G18KT P6SM BKN040
     FM110100 25010KT P6SM SKC=



000
FTUS42 KILM 101720
TAFCRE
TAF
KCRE 101720Z 1018/1118 29011G18KT P6SM BKN040
     FM110100 25009KT P6SM SKC=



000
FTUS42 KILM 101720
TAFILM
TAF
KILM 101720Z 1018/1118 28013G21KT P6SM BKN040
     FM110100 27008KT P6SM SKC=



000
FTUS42 KILM 101720
TAFLBT
TAF
KLBT 101720Z 1018/1118 29011G18KT P6SM BKN040
     FM110100 28008KT P6SM SKC=



000
FTUS42 KILM 101605 AAA
TAFLBT
TAF AMD
KLBT 101605Z 1016/1112 29011G18KT P6SM FEW040
     FM110000 28008KT P6SM SKC=



000
FTUS42 KILM 101605 AAA
TAFLBT
TAF AMD
KLBT 101605Z 1016/1112 29011G18KT P6SM FEW040
     FM110000 28008KT P6SM SKC=



000
FTUS42 KILM 101604 AAA
TAFFLO
TAF AMD
KFLO 101604Z 1016/1112 28010G18KT P6SM SCT040
     FM110000 28008KT P6SM SKC=



000
FTUS42 KILM 101603 AAA
TAFCRE
TAF AMD
KCRE 101603Z 1016/1112 29011G18KT P6SM SCT040
     FM110100 25009KT P6SM SKC=



000
FTUS42 KILM 101603 AAA
TAFMYR
TAF AMD
KMYR 101603Z 1016/1112 29010G18KT P6SM SCT040
     FM110100 25010KT P6SM SKC=



000
FTUS42 KILM 101602 AAA
TAFILM
TAF AMD
KILM 101602Z 1016/1112 28013G21KT P6SM BKN040
     FM110100 27008KT P6SM SKC=



000
FTUS42 KILM 101123
TAFCRE
TAF
KCRE 101123Z 1012/1112 26007KT P6SM SKC
     FM101500 26015G25KT P6SM SCT050 BKN150
     FM110100 25009KT P6SM SKC=



000
FTUS42 KILM 101123
TAFLBT
TAF
KLBT 101123Z 1012/1112 27007KT P6SM SKC
     FM101400 27015G23KT P6SM SCT050 SCT100
     FM110000 28008KT P6SM SKC=



000
FTUS42 KILM 101123
TAFILM
TAF
KILM 101123Z 1012/1112 28008KT P6SM SCT070
     FM101500 26016G27KT P6SM SCT050 BKN150
     FM110100 26011KT P6SM SKC=



000
FTUS42 KILM 101123
TAFFLO
TAF
KFLO 101123Z 1012/1112 25008KT P6SM SKC
     FM101400 27015G24KT P6SM SKC
     FM110000 28008KT P6SM SKC=



000
FTUS42 KILM 101123
TAFMYR
TAF
KMYR 101123Z 1012/1112 28010G16KT P6SM SKC
     FM101500 26016G26KT P6SM SCT050 BKN150
     FM110100 25010KT P6SM SKC=



000
FTUS42 KILM 100523
TAFFLO
TAF
KFLO 100523Z 1006/1106 28010G14KT P6SM BKN040 OVC060
     FM100800 27007KT P6SM SCT060
     FM101400 27015G24KT P6SM SKC
     FM110000 28008KT P6SM SKC=



000
FTUS42 KILM 100523
TAFCRE
TAF
KCRE 100523Z 1006/1106 26010G15KT P6SM SCT045 BKN070
     FM100800 26009KT P6SM SCT070
     FM101400 26015G25KT P6SM SCT050 BKN150
     FM110100 25009KT P6SM SKC=



000
FTUS42 KILM 100523
TAFLBT
TAF
KLBT 100523Z 1006/1106 30010G14KT P6SM OVC060
     FM100900 28007KT P6SM SCT060
     FM101400 27015G23KT P6SM SCT050 SCT100
     FM110000 28008KT P6SM SKC=



000
FTUS42 KILM 100523
TAFILM
TAF
KILM 100523Z 1006/1106 26010G15KT P6SM BKN070
      TEMPO 1006/1007 6SM -SN BKN045
     FM100900 26010KT P6SM SCT070
     FM101400 26016G27KT P6SM SCT050 BKN150
     FM110100 26011KT P6SM SKC=



000
FTUS42 KILM 100523
TAFMYR
TAF
KMYR 100523Z 1006/1106 26010G15KT P6SM SCT045 BKN070
     FM100800 26010KT P6SM SCT070
     FM101400 26016G26KT P6SM SCT050 BKN150
     FM110100 25010KT P6SM SKC
      AMD LTD TO CLD VIS AND WIND TIL 101100=



000
FTUS42 KILM 100502 AAA
TAFILM
TAF AMD
KILM 100502Z 1005/1024 25016G26KT P6SM BKN060 OVC100
      TEMPO 1005/1007 5SM -SN BKN045
     FM100900 26008KT P6SM SCT100
     FM101500 27012G23KT P6SM SCT050 SCT100=



000
FTUS42 KILM 100502 AAA
TAFILM
TAF AMD
KILM 100502Z 1005/1024 25016G26KT P6SM BKN060 OVC100
      TEMPO 1005/1007 5SM -SN BKN045
     FM100900 26008KT P6SM SCT100
     FM101500 27012G23KT P6SM SCT050 SCT100=



000
FTUS42 KILM 092320
TAFMYR
TAF
KMYR 092320Z 1000/1024 27017G25KT P6SM BKN050
     FM100200 25010KT P6SM SCT050 BKN100
     FM100900 27007KT P6SM SKC
     FM101500 28015G24KT P6SM SCT050 SCT100
      AMD LTD TO CLD VIS AND WIND TIL 101100=



000
FTUS42 KILM 092320
TAFCRE
TAF
KCRE 092320Z 1000/1024 25016G25KT P6SM BKN050
     FM100200 25009KT P6SM SCT050 BKN100
     FM100900 26007KT P6SM SKC
     FM101500 28014G24KT P6SM SCT050 SCT100=



000
FTUS42 KILM 092320
TAFFLO
TAF
KFLO 092320Z 1000/1024 28013G24KT P6SM BKN050 BKN110
     FM100100 28008KT P6SM SCT050 BKN100
     FM100800 27007KT P6SM SKC
     FM101300 27016G23KT P6SM SKC=



000
FTUS42 KILM 092320
TAFLBT
TAF
KLBT 092320Z 1000/1024 24016G24KT P6SM BKN045
     FM100100 28009KT P6SM SCT050 BKN100
     FM100900 27006KT P6SM SKC
     FM101500 27013G21KT P6SM SCT050 SCT100=



000
FTUS42 KILM 092320
TAFILM
TAF
KILM 092320Z 1000/1024 25016G26KT P6SM BKN045 BKN100
     FM100100 25011KT P6SM BKN045 BKN100
     FM100900 26008KT P6SM SCT100
     FM101500 27012G23KT P6SM SCT050 SCT100=



000
FTUS42 KILM 091720
TAFMYR
TAF
KMYR 091720Z 0918/1018 27017G25KT P6SM BKN050
     FM100200 25010KT P6SM SCT050 BKN100
     FM100900 27007KT P6SM SKC
     FM101500 28015KT P6SM SCT050 SCT100=



000
FTUS42 KILM 091720
TAFLBT
TAF
KLBT 091720Z 0918/1018 24016G24KT P6SM BKN045
     FM100100 28009KT P6SM SCT050 BKN100
     FM100900 27006KT P6SM SKC
     FM101500 27013KT P6SM SCT050 SCT100=



000
FTUS42 KILM 091720
TAFMYR
TAF
KMYR 091720Z 0918/1018 27017G25KT P6SM BKN050
     FM100200 25010KT P6SM SCT050 BKN100
     FM100900 27007KT P6SM SKC
     FM101500 28015KT P6SM SCT050 SCT100=



000
FTUS42 KILM 091720
TAFILM
TAF
KILM 091720Z 0918/1018 25016G26KT P6SM BKN045 BKN100
     FM100100 25011KT P6SM BKN045 BKN100
     FM100900 26008KT P6SM SCT100
     FM101500 27012KT P6SM SCT050 SCT100=



000
FTUS42 KILM 091720
TAFFLO
TAF
KFLO 091720Z 0918/1018 28013G24KT P6SM BKN050 BKN110
     FM100100 28008KT P6SM SCT050 BKN100
     FM100800 27007KT P6SM SKC=



000
FTUS42 KILM 091720
TAFFLO
TAF

FM101500
 27014KT P6SM SCT100=



000
FTUS42 KILM 091720
TAFFLO
TAF
KFLO 091720Z 0918/1018 28013G24KT P6SM BKN050 BKN110
     FM100100 28008KT P6SM SCT050 BKN100
     FM100800 27007KT P6SM SKC=



000
FTUS42 KILM 091720
TAFFLO
TAF

FM101500
 27014KT P6SM SCT100=



000
FTUS42 KILM 091720
TAFCRE
TAF
KCRE 091720Z 0918/1018 25016G25KT P6SM BKN050
     FM100200 25009KT P6SM SCT050 BKN100
     FM100900 26007KT P6SM SKC
     FM101500 28014KT P6SM SCT050 SCT100=



000
FTUS42 KILM 091720
TAFILM
TAF
KILM 091720Z 0918/1018 25016G26KT P6SM BKN045 BKN100
     FM100100 25011KT P6SM BKN045 BKN100
     FM100900 26008KT P6SM SCT100
     FM101500 27012KT P6SM SCT050 SCT100=



000
FTUS42 KILM 091720
TAFLBT
TAF
KLBT 091720Z 0918/1018 24016G24KT P6SM BKN045
     FM100100 28009KT P6SM SCT050 BKN100
     FM100900 27006KT P6SM SKC
     FM101500 27013KT P6SM SCT050 SCT100=



000
FTUS42 KILM 091720
TAFCRE
TAF
KCRE 091720Z 0918/1018 25016G25KT P6SM BKN050
     FM100200 25009KT P6SM SCT050 BKN100
     FM100900 26007KT P6SM SKC
     FM101500 28014KT P6SM SCT050 SCT100=



000
FTUS42 KILM 091207 AAA
TAFILM
TAF AMD
KILM 091207Z 0912/1012 26012KT P6SM BKN040
     FM091400 26014G24KT P6SM SCT050 SCT120
     FM100100 25011G18KT P6SM BKN120
     FM100700 26009KT P6SM SKC=



000
FTUS42 KILM 091207 AAA
TAFILM
TAF AMD
KILM 091207Z 0912/1012 26012KT P6SM BKN040
     FM091400 26014G24KT P6SM SCT050 SCT120
     FM100100 25011G18KT P6SM BKN120
     FM100700 26009KT P6SM SKC=



000
FTUS42 KILM 091159 CCA
TAFILM
TAF COR
KILM 091159Z 0912/1012 26010KT P6SM FEW040
     FM091400 26014G24KT P6SM SCT050 SCT120
     FM100100 25011G18KT P6SM BKN120
     FM100700 26009KT P6SM SKC=



000
FTUS42 KILM 091159 CCA
TAFILM
TAF COR
KILM 091159Z 0912/1012 26010KT P6SM FEW040
     FM091400 26014G24KT P6SM SCT050 SCT120
     FM100100 25011G18KT P6SM BKN120
     FM100700 26009KT P6SM SKC=



000
FTUS42 KILM 091128
TAFCRE
TAF
KCRE 091128Z 0912/1012 27009KT P6SM SKC
     FM091400 25015G22KT P6SM SCT050 SCT090
     FM091700 25017G27KT P6SM BKN050
     FM100100 25010G15KT P6SM BKN080
     FM100700 26007G14KT P6SM SKC=



000
FTUS42 KILM 091128
TAFILM
TAF
KILM 091128Z 0912/1012 26011KT P6SM SCT080
     FM091400 26014G24KT P6SM SCT050 SCT120
     FM100100 25011G18KT P6SM BKN120
     FM100700 26009KT P6SM SKC=



000
FTUS42 KILM 091128
TAFFLO
TAF
KFLO 091128Z 0912/1012 27010G22KT P6SM FEW120
     FM091400 27015G26KT P6SM OVC050
     FM100100 28008KT P6SM BKN100
     FM100800 28009KT P6SM SKC=



000
FTUS42 KILM 091128
TAFLBT
TAF
KLBT 091128Z 0912/1012 26009KT P6SM BKN060
     FM091300 27013G23KT P6SM BKN050 BKN110
     FM100100 27012KT P6SM BKN050
     FM100600 27006KT P6SM OVC050=



000
FTUS42 KILM 091128
TAFMYR
TAF
KMYR 091128Z 0912/1012 26012KT P6SM SKC
     FM091300 26015G22KT P6SM SCT050 BKN090
     FM091700 26018G28KT P6SM BKN050
     FM100100 25011G17KT P6SM OVC080
     FM100500 27007G16KT P6SM SKC=



000
FTUS42 KILM 091128
TAFILM
TAF
KILM 091128Z 0912/1012 26011KT P6SM SCT080
     FM091400 26014G24KT P6SM SCT050 SCT120
     FM100100 25011G18KT P6SM BKN120
     FM100700 26009KT P6SM SKC=



000
FTUS42 KILM 091128
TAFLBT
TAF
KLBT 091128Z 0912/1012 26009KT P6SM BKN060
     FM091300 27013G23KT P6SM BKN050 BKN110
     FM100100 27012KT P6SM BKN050
     FM100600 27006KT P6SM OVC050=



000
FTUS42 KILM 091128
TAFFLO
TAF
KFLO 091128Z 0912/1012 27010G22KT P6SM FEW120
     FM091400 27015G26KT P6SM OVC050
     FM100100 28008KT P6SM BKN100
     FM100800 28009KT P6SM SKC=



000
FTUS42 KILM 091128
TAFMYR
TAF
KMYR 091128Z 0912/1012 26012KT P6SM SKC
     FM091300 26015G22KT P6SM SCT050 BKN090
     FM091700 26018G28KT P6SM BKN050
     FM100100 25011G17KT P6SM OVC080
     FM100500 27007G16KT P6SM SKC=



000
FTUS42 KILM 091128
TAFCRE
TAF
KCRE 091128Z 0912/1012 27009KT P6SM SKC
     FM091400 25015G22KT P6SM SCT050 SCT090
     FM091700 25017G27KT P6SM BKN050
     FM100100 25010G15KT P6SM BKN080
     FM100700 26007G14KT P6SM SKC=



000
FTUS42 KILM 091105 AAA
TAFFLO
TAF AMD
KFLO 091105Z 0911/1006 27010G15KT P6SM SCT070
     FM091300 26015G25KT P6SM SCT050 BKN080
     FM091700 26019G28KT P6SM OVC050
     FM100100 26010G15KT P6SM OVC060=



000
FTUS42 KILM 091105 AAA
TAFFLO
TAF AMD
KFLO 091105Z 0911/1006 27010G15KT P6SM SCT070
     FM091300 26015G25KT P6SM SCT050 BKN080
     FM091700 26019G28KT P6SM OVC050
     FM100100 26010G15KT P6SM OVC060=



000
FTUS42 KILM 090947 AAA
TAFLBT
TAF AMD
KLBT 090947Z 0910/1006 26007KT P6SM VCSH BKN080
     FM091300 27015G25KT P6SM SCT050 BKN080
     FM091700 27019G28KT P6SM OVC050
     FM100100 26010G15KT P6SM OVC050=



000
FTUS42 KILM 090546 CCA
TAFLBT
TAF COR
KLBT 090546Z 0906/1006 26007KT P6SM BKN080
      TEMPO 0906/0908 26010G19KT P6SM BKN060
     FM091300 27015G25KT P6SM SCT050 BKN080
     FM091700 27019G28KT P6SM OVC050
     FM100100 26010G15KT P6SM OVC050=



000
FTUS42 KILM 090546 CCA
TAFLBT
TAF COR
KLBT 090546Z 0906/1006 26007KT P6SM BKN080
      TEMPO 0906/0908 26010G19KT P6SM BKN060
     FM091300 27015G25KT P6SM SCT050 BKN080
     FM091700 27019G28KT P6SM OVC050
     FM100100 26010G15KT P6SM OVC050=



000
FTUS42 KILM 090541 CCA
TAFFLO
TAF COR
KFLO 090541Z 0906/1006 27009KT P6SM SCT070
     FM091300 26015G25KT P6SM SCT050 BKN080
     FM091700 26019G28KT P6SM OVC050
     FM100100 26010G15KT P6SM OVC060=



000
FTUS42 KILM 090541 CCA
TAFFLO
TAF COR
KFLO 090541Z 0906/1006 27009KT P6SM SCT070
     FM091300 26015G25KT P6SM SCT050 BKN080
     FM091700 26019G28KT P6SM OVC050
     FM100100 26010G15KT P6SM OVC060=



000
FTUS42 KILM 090538
TAFLBT
TAF
KLBT 090538Z 0906/1006 27011G18KT P6SM SCT100 BKN250
     FM091500 27015G22KT P6SM OVC050
     FM100000 27008KT P6SM OVC100=



000
FTUS42 KILM 090538
TAFILM
TAF
KILM 090538Z 0906/1006 26008KT P6SM BKN070
     FM091300 26016G26KT P6SM SCT050 BKN090
     FM091700 26018G29KT P6SM BKN050
     FM100100 25011G16KT P6SM OVC080=



000
FTUS42 KILM 090538
TAFFLO
TAF
KFLO 090538Z 0906/1006 25015G22KT P6SM FEW250
     FM091500 27015G22KT P6SM OVC050
     FM100000 27008KT P6SM OVC100=



000
FTUS42 KILM 090538
TAFCRE
TAF
KCRE 090538Z 0906/1006 26007KT P6SM BKN070
     FM091300 25015G25KT P6SM SCT050 BKN090
     FM091700 25017G27KT P6SM BKN045
     FM100100 25010G15KT P6SM OVC080=



000
FTUS42 KILM 090538
TAFMYR
TAF
KMYR 090538Z 0906/1006 26007G12KT P6SM BKN070
     FM091230 26015G25KT P6SM SCT050 BKN090
     FM091700 26018G29KT P6SM BKN045
     FM100100 25011G17KT P6SM OVC080
      AMD LTD TO CLD VIS AND WIND TIL 091100=



000
FTUS42 KILM 090538
TAFMYR
TAF
KMYR 090538Z 0906/1006 26007G12KT P6SM BKN070
     FM091230 26015G25KT P6SM SCT050 BKN090
     FM091700 26018G29KT P6SM BKN045
     FM100100 25011G17KT P6SM OVC080
      AMD LTD TO CLD VIS AND WIND TIL 091100=



000
FTUS42 KILM 090538
TAFCRE
TAF
KCRE 090538Z 0906/1006 26007KT P6SM BKN070
     FM091300 25015G25KT P6SM SCT050 BKN090
     FM091700 25017G27KT P6SM BKN045
     FM100100 25010G15KT P6SM OVC080=



000
FTUS42 KILM 090538
TAFFLO
TAF
KFLO 090538Z 0906/1006 25015G22KT P6SM FEW250
     FM091500 27015G22KT P6SM OVC050
     FM100000 27008KT P6SM OVC100=



000
FTUS42 KILM 090538
TAFLBT
TAF
KLBT 090538Z 0906/1006 27011G18KT P6SM SCT100 BKN250
     FM091500 27015G22KT P6SM OVC050
     FM100000 27008KT P6SM OVC100=



000
FTUS42 KILM 090538
TAFILM
TAF
KILM 090538Z 0906/1006 26008KT P6SM BKN070
     FM091300 26016G26KT P6SM SCT050 BKN090
     FM091700 26018G29KT P6SM BKN050
     FM100100 25011G16KT P6SM OVC080=



000
FTUS42 KILM 090127 AAA
TAFILM
TAF AMD
KILM 090127Z 0901/0924 23011G18KT P6SM VCSH SCT050 BKN100
      TEMPO 0901/0903 6SM -SHRA BKN025 OVC080
     FM090300 26010G15KT P6SM BKN060
     FM090600 26015G20KT P6SM SCT250
     FM091300 26018G25KT P6SM SCT050 BKN100
     FM091700 26016G27KT P6SM BKN050=



000
FTUS42 KILM 090127 AAA
TAFILM
TAF AMD
KILM 090127Z 0901/0924 23011G18KT P6SM VCSH SCT050 BKN100
      TEMPO 0901/0903 6SM -SHRA BKN025 OVC080
     FM090300 26010G15KT P6SM BKN060
     FM090600 26015G20KT P6SM SCT250
     FM091300 26018G25KT P6SM SCT050 BKN100
     FM091700 26016G27KT P6SM BKN050=



000
FTUS42 KILM 082353 CCA
TAFILM
TAF COR
KILM 082353Z 0900/0924 23011G18KT P6SM VCSH SCT050 BKN100
      TEMPO 0901/0903 6SM -SHRA BKN050 OVC080
     FM090300 26010G15KT P6SM BKN060
     FM090600 26015G20KT P6SM SCT250
     FM091300 26018G25KT P6SM SCT050 BKN100
     FM091700 26016G27KT P6SM BKN050=



000
FTUS42 KILM 082353 CCA
TAFILM
TAF COR
KILM 082353Z 0900/0924 23011G18KT P6SM VCSH SCT050 BKN100
      TEMPO 0901/0903 6SM -SHRA BKN050 OVC080
     FM090300 26010G15KT P6SM BKN060
     FM090600 26015G20KT P6SM SCT250
     FM091300 26018G25KT P6SM SCT050 BKN100
     FM091700 26016G27KT P6SM BKN050=



000
FTUS42 KILM 082320
TAFILM
TAF
KILM 082320Z 0900/0924 23011G18KT P6SM VCSH SCT050 BKN100
      TEMPO 0900/0902 6SM -SHRA BKN050 OVC080
     FM090200 26010G15KT P6SM BKN060
     FM090600 26015G20KT P6SM SCT250
     FM091300 26018G25KT P6SM SCT050 BKN100
     FM091700 26016G27KT P6SM BKN050=



000
FTUS42 KILM 082320
TAFCRE
TAF
KCRE 082320Z 0900/0924 23013KT P6SM BKN100
      TEMPO 0900/0902 6SM -SHRA BKN040 OVC080
     FM090200 26010G15KT P6SM BKN060
     FM090600 25012G20KT P6SM SCT250
     FM091900 26018G26KT P6SM OVC050=



000
FTUS42 KILM 082320
TAFLBT
TAF
KLBT 082320Z 0900/0924 21011G18KT P6SM FEW060 SCT150
      TEMPO 0900/0901 27013G20KT 4SM -SHRA BKN040
     FM090100 26010KT P6SM BKN050
     FM090500 27011G18KT P6SM SCT100 BKN250
     FM091500 27015G22KT P6SM OVC050=



000
FTUS42 KILM 082320
TAFMYR
TAF
KMYR 082320Z 0900/0924 25012G20KT P6SM BKN100
      TEMPO 0900/0902 6SM -SHRA BKN040 OVC080
     FM090200 26010G15KT P6SM BKN060
     FM090600 25015G22KT P6SM SCT250
     FM091900 26018G26KT P6SM OVC050
      AMD LTD TO CLD VIS AND WIND TIL 091100=



000
FTUS42 KILM 082320
TAFFLO
TAF
KFLO 082320Z 0900/0924 22011KT P6SM SCT060 SCT150
     FM090100 26010G15KT P6SM BKN050
     FM090500 25015G22KT P6SM FEW250
     FM091500 27015G22KT P6SM OVC050=



000
FTUS42 KILM 082209 AAA
TAFLBT
TAF AMD
KLBT 082209Z 0822/0918 21011G18KT P6SM FEW060 SCT150
      TEMPO 0822/0901 27013G20KT 4SM -SHRA BKN040
     FM090100 26010KT P6SM BKN050
     FM090500 27011G18KT P6SM SCT100 BKN250
     FM091400 26015G22KT P6SM SCT050 BKN100=



000
FTUS42 KILM 082209 AAA
TAFFLO
TAF AMD
KFLO 082209Z 0822/0918 22011KT P6SM SCT060 SCT150
      TEMPO 0822/0824 28014G22KT 4SM SHRA BKN035
     FM090100 26010G15KT P6SM BKN050
     FM090500 25015G22KT P6SM FEW250
     FM091400 26016G25KT P6SM SCT050 BKN100=



000
FTUS42 KILM 081724
TAFMYR
TAF
KMYR 081724Z 0818/0918 19011G15KT P6SM SKC
     FM081900 22013G20KT P6SM SCT120 SCT250
     FM082300 25012G20KT P6SM BKN100
      TEMPO 0823/0902 6SM -SHRA BKN040 OVC080
     FM090200 26010G15KT P6SM BKN060
     FM090600 25015G22KT P6SM SCT250=



000
FTUS42 KILM 081724
TAFILM
TAF
KILM 081724Z 0818/0918 17008KT P6SM FEW250
     FM082000 22013G20KT P6SM SCT120 BKN250
     FM082300 23011G18KT P6SM BKN100
      TEMPO 0823/0902 6SM -SHRA BKN060 OVC080
     FM090200 26010G15KT P6SM BKN060
     FM090600 26015G20KT P6SM SCT250
     FM091300 26018G25KT P6SM SCT050 BKN100=



000
FTUS42 KILM 081724
TAFMYR
TAF
KMYR 081724Z 0818/0918 19011G15KT P6SM SKC
     FM081900 22013G20KT P6SM SCT120 SCT250
     FM082300 25012G20KT P6SM BKN100
      TEMPO 0823/0902 6SM -SHRA BKN040 OVC080
     FM090200 26010G15KT P6SM BKN060
     FM090600 25015G22KT P6SM SCT250=



000
FTUS42 KILM 081724
TAFCRE
TAF
KCRE 081724Z 0818/0918 19012KT P6SM SKC
     FM082000 21011G18KT P6SM SCT120 SCT250
     FM082300 23013KT P6SM BKN100
      TEMPO 0823/0902 6SM -SHRA BKN040 OVC080
     FM090200 26010G15KT P6SM BKN060
     FM090600 25012G20KT P6SM SCT250=



000
FTUS42 KILM 081724
TAFFLO
TAF
KFLO 081724Z 0818/0918 22011KT P6SM SCT060 SCT150
      TEMPO 0821/0824 5SM -SHRA BKN040 OVC100
     FM090100 26010G15KT P6SM BKN050
     FM090500 25015G22KT P6SM FEW250
     FM091400 26016G25KT P6SM SCT050 BKN100=



000
FTUS42 KILM 081724
TAFLBT
TAF
KLBT 081724Z 0818/0918 21011G18KT P6SM FEW060 SCT150
      TEMPO 0822/0901 5SM -SHRA BKN040
     FM090100 26010KT P6SM BKN050
     FM090500 27011G18KT P6SM SCT100 BKN250
     FM091400 26015G22KT P6SM SCT050 BKN100=



000
FTUS42 KILM 081130
TAFFLO
TAF
KFLO 081130Z 0812/0912 24007KT P6SM FEW250
     FM081800 23012G19KT P6SM SCT060 BKN150
      TEMPO 0820/0824 5SM -SHRA BKN040
     FM090100 26010G15KT P6SM BKN050
     FM090500 25015G22KT P6SM FEW250=



000
FTUS42 KILM 081130
TAFILM
TAF
KILM 081130Z 0812/0912 28008KT P6SM SKC
     FM081900 22013G20KT P6SM SCT120 OVC250
     FM082300 23011G18KT P6SM BKN100
      TEMPO 0823/0902 6SM -SHRA BKN060 OVC080
     FM090200 26010G15KT P6SM BKN060
     FM090600 26015G20KT P6SM SCT250=



000
FTUS42 KILM 081130
TAFCRE
TAF
KCRE 081130Z 0812/0912 27007KT P6SM SKC
     FM081900 21011G18KT P6SM SCT120 OVC250
     FM082300 23013G20KT P6SM BKN100
      TEMPO 0823/0902 6SM -SHRA BKN040 OVC080
     FM090200 26010G15KT P6SM BKN060
     FM090600 25012G20KT P6SM SCT250=



000
FTUS42 KILM 081130
TAFLBT
TAF
KLBT 081130Z 0812/0912 25008KT P6SM FEW250
     FM081800 23012G18KT P6SM SCT060 BKN150
      TEMPO 0821/0901 5SM -SHRA BKN040
     FM090100 26010G15KT P6SM BKN050
     FM090500 28011G18KT P6SM SCT100 BKN250=



000
FTUS42 KILM 081130
TAFMYR
TAF
KMYR 081130Z 0812/0912 27008KT P6SM SKC
     FM081900 22013G20KT P6SM SCT120 OVC250
     FM082300 25012G20KT P6SM BKN100
      TEMPO 0823/0902 6SM -SHRA BKN040 OVC080
     FM090200 26010G15KT P6SM BKN060
     FM090600 25015G22KT P6SM SCT250=



    US Dept of Commerce
    National Oceanic and Atmospheric Administration
    National Weather Service
    1325 East West Highway
    Silver Spring, MD 20910
    Page Author: NWS Internet Services Team
Disclaimer
Information Quality
Credits
Glossary
Privacy Policy
Freedom of Information Act (FOIA)
About Us
Career Opportunities